sensor_id;sensor_type;location;lat;lon;timestamp;pressure;altitude;pressure_sealevel;temperature;humidity
64336;BME280;50672;53.362;-6.240;2022-09-30T00:02:13;100926.59;;;11.91;77.56
64336;BME280;50672;53.362;-6.240;2022-09-30T00:05:40;100926.59;;;11.91;77.50
64336;BME280;50672;53.362;-6.240;2022-09-30T00:09:06;100925.38;;;11.93;77.15
64336;BME280;50672;53.362;-6.240;2022-09-30T00:12:33;100927.13;;;11.94;77.02
64336;BME280;50672;53.362;-6.240;2022-09-30T00:15:59;100925.38;;;11.93;76.74
64336;BME280;50672;53.362;-6.240;2022-09-30T00:19:29;100924.72;;;11.91;76.78
64336;BME280;50672;53.362;-6.240;2022-09-30T00:22:55;100919.06;;;11.93;76.68
64336;BME280;50672;53.362;-6.240;2022-09-30T00:26:03;100907.31;;;11.92;76.31
64336;BME280;50672;53.362;-6.240;2022-09-30T00:29:28;100899.84;;;11.94;76.28
64336;BME280;50672;53.362;-6.240;2022-09-30T00:32:55;100892.31;;;11.96;76.15
64336;BME280;50672;53.362;-6.240;2022-09-30T00:36:46;100896.56;;;11.99;76.32
64336;BME280;50672;53.362;-6.240;2022-09-30T00:40:11;100892.63;;;12.02;76.28
64336;BME280;50672;53.362;-6.240;2022-09-30T00:43:44;100886.13;;;12.03;76.10
64336;BME280;50672;53.362;-6.240;2022-09-30T00:50:44;100870.44;;;12.05;75.99
64336;BME280;50672;53.362;-6.240;2022-09-30T00:54:11;100867.53;;;12.06;75.75
64336;BME280;50672;53.362;-6.240;2022-09-30T01:01:29;100865.28;;;12.10;75.69
64336;BME280;50672;53.362;-6.240;2022-09-30T01:04:55;100852.47;;;12.10;75.74
64336;BME280;50672;53.362;-6.240;2022-09-30T01:08:04;100848.91;;;12.10;75.62
64336;BME280;50672;53.362;-6.240;2022-09-30T01:10:31;100838.00;;;12.10;75.56
64336;BME280;50672;53.362;-6.240;2022-09-30T01:12:58;100834.41;;;12.09;75.39
64336;BME280;50672;53.362;-6.240;2022-09-30T01:15:38;100824.38;;;12.10;75.12
64336;BME280;50672;53.362;-6.240;2022-09-30T01:18:22;100808.00;;;12.10;75.22
64336;BME280;50672;53.362;-6.240;2022-09-30T01:21:35;100803.56;;;12.09;75.48
64336;BME280;50672;53.362;-6.240;2022-09-30T01:26:52;100795.00;;;12.12;75.30
64336;BME280;50672;53.362;-6.240;2022-09-30T01:29:52;100801.28;;;12.12;75.36
64336;BME280;50672;53.362;-6.240;2022-09-30T01:36:00;100799.31;;;12.06;75.51
64336;BME280;50672;53.362;-6.240;2022-09-30T01:41:25;100772.22;;;12.05;75.81
64336;BME280;50672;53.362;-6.240;2022-09-30T01:44:02;100768.81;;;12.03;75.60
64336;BME280;50672;53.362;-6.240;2022-09-30T01:46:33;100777.38;;;12.00;75.69
64336;BME280;50672;53.362;-6.240;2022-09-30T01:54:38;100743.84;;;11.91;76.02
64336;BME280;50672;53.362;-6.240;2022-09-30T01:57:26;100751.34;;;11.89;76.09
64336;BME280;50672;53.362;-6.240;2022-09-30T02:00:05;100754.94;;;11.89;76.42
64336;BME280;50672;53.362;-6.240;2022-09-30T02:02:38;100758.50;;;11.90;76.51
64336;BME280;50672;53.362;-6.240;2022-09-30T02:05:29;100745.72;;;11.90;76.68
64336;BME280;50672;53.362;-6.240;2022-09-30T02:08:07;100740.09;;;11.92;76.37
64336;BME280;50672;53.362;-6.240;2022-09-30T02:13:53;100720.13;;;11.91;76.70
64336;BME280;50672;53.362;-6.240;2022-09-30T02:16:26;100708.91;;;11.94;76.50
64336;BME280;50672;53.362;-6.240;2022-09-30T02:19:23;100699.66;;;11.95;76.37
64336;BME280;50672;53.362;-6.240;2022-09-30T02:22:00;100693.00;;;11.98;76.55
64336;BME280;50672;53.362;-6.240;2022-09-30T02:24:33;100683.59;;;12.01;76.50
64336;BME280;50672;53.362;-6.240;2022-09-30T02:27:08;100677.13;;;12.02;76.58
64336;BME280;50672;53.362;-6.240;2022-09-30T02:29:42;100673.31;;;12.03;76.58
64336;BME280;50672;53.362;-6.240;2022-09-30T02:32:16;100672.31;;;12.04;76.58
64336;BME280;50672;53.362;-6.240;2022-09-30T02:34:56;100652.19;;;12.05;76.65
64336;BME280;50672;53.362;-6.240;2022-09-30T02:37:34;100644.81;;;12.05;76.83
64336;BME280;50672;53.362;-6.240;2022-09-30T02:40:10;100636.00;;;12.03;76.68
64336;BME280;50672;53.362;-6.240;2022-09-30T02:42:42;100630.53;;;12.03;77.03
64336;BME280;50672;53.362;-6.240;2022-09-30T02:45:13;100626.78;;;12.04;77.00
64336;BME280;50672;53.362;-6.240;2022-09-30T02:50:50;100612.19;;;12.12;76.48
64336;BME280;50672;53.362;-6.240;2022-09-30T02:53:39;100607.00;;;12.17;76.50
64336;BME280;50672;53.362;-6.240;2022-09-30T02:58:42;100595.63;;;12.28;75.95
64336;BME280;50672;53.362;-6.240;2022-09-30T03:01:15;100585.13;;;12.32;75.57
64336;BME280;50672;53.362;-6.240;2022-09-30T03:03:45;100585.63;;;12.36;75.80
64336;BME280;50672;53.362;-6.240;2022-09-30T03:06:14;100581.66;;;12.38;75.46
64336;BME280;50672;53.362;-6.240;2022-09-30T03:08:42;100582.09;;;12.42;75.01
64336;BME280;50672;53.362;-6.240;2022-09-30T03:11:17;100566.41;;;12.44;74.74
64336;BME280;50672;53.362;-6.240;2022-09-30T03:21:57;100558.50;;;12.49;73.80
64336;BME280;50672;53.362;-6.240;2022-09-30T03:24:38;100558.28;;;12.51;73.57
64336;BME280;50672;53.362;-6.240;2022-09-30T03:30:15;100529.09;;;12.51;73.19
64336;BME280;50672;53.362;-6.240;2022-09-30T03:44:05;100490.47;;;12.54;72.14
64336;BME280;50672;53.362;-6.240;2022-09-30T03:46:39;100497.84;;;12.54;71.98
64336;BME280;50672;53.362;-6.240;2022-09-30T03:49:11;100490.47;;;12.54;71.62
64336;BME280;50672;53.362;-6.240;2022-09-30T03:51:41;100494.91;;;12.55;71.37
64336;BME280;50672;53.362;-6.240;2022-09-30T03:54:09;100490.28;;;12.56;71.23
64336;BME280;50672;53.362;-6.240;2022-09-30T03:56:37;100482.09;;;12.56;71.15
64336;BME280;50672;53.362;-6.240;2022-09-30T03:59:26;100455.66;;;12.56;71.11
64336;BME280;50672;53.362;-6.240;2022-09-30T04:01:54;100448.28;;;12.57;70.82
64336;BME280;50672;53.362;-6.240;2022-09-30T04:04:22;100446.44;;;12.57;70.58
64336;BME280;50672;53.362;-6.240;2022-09-30T04:06:49;100433.41;;;12.59;70.72
64336;BME280;50672;53.362;-6.240;2022-09-30T04:09:16;100428.97;;;12.58;70.75
64336;BME280;50672;53.362;-6.240;2022-09-30T04:11:43;100428.16;;;12.58;70.61
64336;BME280;50672;53.362;-6.240;2022-09-30T04:14:10;100421.19;;;12.55;70.60
64336;BME280;50672;53.362;-6.240;2022-09-30T04:16:36;100415.72;;;12.55;70.40
64336;BME280;50672;53.362;-6.240;2022-09-30T04:19:06;100407.75;;;12.54;70.51
64336;BME280;50672;53.362;-6.240;2022-09-30T04:21:32;100408.78;;;12.53;70.46
64336;BME280;50672;53.362;-6.240;2022-09-30T04:23:59;100412.56;;;12.52;70.56
64336;BME280;50672;53.362;-6.240;2022-09-30T04:26:27;100406.25;;;12.51;70.44
64336;BME280;50672;53.362;-6.240;2022-09-30T04:28:53;100406.25;;;12.51;70.56
64336;BME280;50672;53.362;-6.240;2022-09-30T04:31:24;100390.91;;;12.50;70.19
64336;BME280;50672;53.362;-6.240;2022-09-30T04:33:51;100399.94;;;12.51;70.32
64336;BME280;50672;53.362;-6.240;2022-09-30T04:36:18;100382.53;;;12.52;70.41
64336;BME280;50672;53.362;-6.240;2022-09-30T04:38:44;100380.84;;;12.51;70.31
64336;BME280;50672;53.362;-6.240;2022-09-30T04:41:14;100376.22;;;12.51;70.54
64336;BME280;50672;53.362;-6.240;2022-09-30T04:43:44;100380.19;;;12.48;70.38
64336;BME280;50672;53.362;-6.240;2022-09-30T04:46:16;100347.63;;;12.47;70.46
64336;BME280;50672;53.362;-6.240;2022-09-30T04:48:44;100343.19;;;12.46;70.51
64336;BME280;50672;53.362;-6.240;2022-09-30T04:51:17;100331.66;;;12.44;70.34
64336;BME280;50672;53.362;-6.240;2022-09-30T04:53:44;100326.38;;;12.42;70.91
64336;BME280;50672;53.362;-6.240;2022-09-30T04:56:13;100317.53;;;12.40;70.81
64336;BME280;50672;53.362;-6.240;2022-09-30T04:58:40;100316.69;;;12.40;70.97
64336;BME280;50672;53.362;-6.240;2022-09-30T05:01:15;100303.88;;;12.40;70.86
64336;BME280;50672;53.362;-6.240;2022-09-30T05:03:43;100303.88;;;12.40;70.88
64336;BME280;50672;53.362;-6.240;2022-09-30T05:06:11;100287.50;;;12.40;71.26
64336;BME280;50672;53.362;-6.240;2022-09-30T05:08:38;100279.31;;;12.40;71.27
64336;BME280;50672;53.362;-6.240;2022-09-30T05:11:14;100281.22;;;12.40;71.44
64336;BME280;50672;53.362;-6.240;2022-09-30T05:13:43;100266.75;;;12.39;71.38
64336;BME280;50672;53.362;-6.240;2022-09-30T05:16:11;100253.94;;;12.40;71.66
64336;BME280;50672;53.362;-6.240;2022-09-30T05:18:38;100241.50;;;12.37;71.46
64336;BME280;50672;53.362;-6.240;2022-09-30T05:21:08;100231.63;;;12.36;71.88
64336;BME280;50672;53.362;-6.240;2022-09-30T05:23:35;100216.53;;;12.34;72.20
64336;BME280;50672;53.362;-6.240;2022-09-30T05:26:03;100214.84;;;12.33;72.41
64336;BME280;50672;53.362;-6.240;2022-09-30T05:28:36;100201.41;;;12.31;72.28
64336;BME280;50672;53.362;-6.240;2022-09-30T05:31:03;100194.03;;;12.31;72.85
64336;BME280;50672;53.362;-6.240;2022-09-30T05:33:32;100179.34;;;12.33;73.07
64336;BME280;50672;53.362;-6.240;2022-09-30T05:36:01;100178.94;;;12.36;73.34
64336;BME280;50672;53.362;-6.240;2022-09-30T05:38:29;100170.75;;;12.36;73.36
64336;BME280;50672;53.362;-6.240;2022-09-30T05:40:56;100166.13;;;12.36;73.29
64336;BME280;50672;53.362;-6.240;2022-09-30T05:43:23;100164.06;;;12.38;73.55
64336;BME280;50672;53.362;-6.240;2022-09-30T05:45:54;100155.66;;;12.40;73.93
64336;BME280;50672;53.362;-6.240;2022-09-30T05:48:22;100142.66;;;12.42;74.14
64336;BME280;50672;53.362;-6.240;2022-09-30T05:50:57;100127.53;;;12.46;74.24
64336;BME280;50672;53.362;-6.240;2022-09-30T05:53:28;100123.56;;;12.48;74.75
64336;BME280;50672;53.362;-6.240;2022-09-30T05:55:57;100110.59;;;12.51;74.56
64336;BME280;50672;53.362;-6.240;2022-09-30T05:58:24;100097.56;;;12.53;74.89
64336;BME280;50672;53.362;-6.240;2022-09-30T06:00:51;100085.59;;;12.54;75.01
64336;BME280;50672;53.362;-6.240;2022-09-30T06:03:18;100070.69;;;12.56;75.20
64336;BME280;50672;53.362;-6.240;2022-09-30T06:05:44;100064.00;;;12.59;75.19
64336;BME280;50672;53.362;-6.240;2022-09-30T06:08:12;100061.66;;;12.62;75.28
64336;BME280;50672;53.362;-6.240;2022-09-30T06:10:41;100034.81;;;12.66;75.34
64336;BME280;50672;53.362;-6.240;2022-09-30T06:13:09;100017.19;;;12.69;75.58
64336;BME280;50672;53.362;-6.240;2022-09-30T06:15:36;100003.09;;;12.72;75.39
64336;BME280;50672;53.362;-6.240;2022-09-30T06:18:04;99990.28;;;12.79;75.81
64336;BME280;50672;53.362;-6.240;2022-09-30T06:20:31;99982.53;;;12.82;75.69
64336;BME280;50672;53.362;-6.240;2022-09-30T06:22:59;99970.53;;;12.83;75.74
64336;BME280;50672;53.362;-6.240;2022-09-30T06:25:27;99964.03;;;12.85;76.02
64336;BME280;50672;53.362;-6.240;2022-09-30T06:27:55;99970.53;;;12.83;76.36
64336;BME280;50672;53.362;-6.240;2022-09-30T06:30:22;99973.06;;;12.78;76.24
64336;BME280;50672;53.362;-6.240;2022-09-30T06:32:49;99976.00;;;12.70;76.78
64336;BME280;50672;53.362;-6.240;2022-09-30T06:35:15;99981.44;;;12.63;76.77
64336;BME280;50672;53.362;-6.240;2022-09-30T06:37:43;99964.63;;;12.60;76.82
64336;BME280;50672;53.362;-6.240;2022-09-30T06:40:10;99963.38;;;12.56;77.03
64336;BME280;50672;53.362;-6.240;2022-09-30T06:42:37;99971.16;;;12.52;77.41
64336;BME280;50672;53.362;-6.240;2022-09-30T06:45:04;99946.16;;;12.48;77.14
64336;BME280;50672;53.362;-6.240;2022-09-30T06:47:31;99950.56;;;12.50;77.49
64336;BME280;50672;53.362;-6.240;2022-09-30T06:49:58;99916.34;;;12.54;77.80
64336;BME280;50672;53.362;-6.240;2022-09-30T06:52:26;99919.28;;;12.59;77.60
64336;BME280;50672;53.362;-6.240;2022-09-30T06:54:52;99918.88;;;12.62;78.09
64336;BME280;50672;53.362;-6.240;2022-09-30T06:57:23;99912.16;;;12.64;78.30
64336;BME280;50672;53.362;-6.240;2022-09-30T06:59:50;99906.69;;;12.64;78.03
64336;BME280;50672;53.362;-6.240;2022-09-30T07:02:17;99884.84;;;12.64;78.23
64336;BME280;50672;53.362;-6.240;2022-09-30T07:04:44;99889.06;;;12.67;78.54
64336;BME280;50672;53.362;-6.240;2022-09-30T07:07:11;99873.50;;;12.68;78.84
64336;BME280;50672;53.362;-6.240;2022-09-30T07:09:38;99865.09;;;12.69;78.77
64336;BME280;50672;53.362;-6.240;2022-09-30T07:12:04;99885.25;;;12.75;79.31
64336;BME280;50672;53.362;-6.240;2022-09-30T07:14:34;99877.69;;;12.83;79.09
64336;BME280;50672;53.362;-6.240;2022-09-30T07:17:03;99883.13;;;12.90;79.69
64336;BME280;50672;53.362;-6.240;2022-09-30T07:19:30;99866.97;;;12.95;79.77
64336;BME280;50672;53.362;-6.240;2022-09-30T07:21:57;99854.13;;;13.03;79.87
64336;BME280;50672;53.362;-6.240;2022-09-30T07:24:44;99844.00;;;13.10;79.76
64336;BME280;50672;53.362;-6.240;2022-09-30T07:27:11;99822.78;;;13.12;80.06
64336;BME280;50672;53.362;-6.240;2022-09-30T07:29:39;99818.78;;;13.14;80.30
64336;BME280;50672;53.362;-6.240;2022-09-30T07:32:26;99811.19;;;13.16;80.42
64336;BME280;50672;53.362;-6.240;2022-09-30T07:34:54;99789.75;;;13.20;80.25
64336;BME280;50672;53.362;-6.240;2022-09-30T07:37:23;99784.91;;;13.22;80.45
64336;BME280;50672;53.362;-6.240;2022-09-30T07:39:50;99788.28;;;13.24;80.55
64336;BME280;50672;53.362;-6.240;2022-09-30T07:42:18;99783.84;;;13.30;80.70
64336;BME280;50672;53.362;-6.240;2022-09-30T07:44:49;99778.34;;;13.37;80.43
64336;BME280;50672;53.362;-6.240;2022-09-30T07:47:18;99768.66;;;13.41;80.44
64336;BME280;50672;53.362;-6.240;2022-09-30T07:49:45;99769.06;;;13.44;80.67
64336;BME280;50672;53.362;-6.240;2022-09-30T07:52:13;99753.91;;;13.48;80.82
64336;BME280;50672;53.362;-6.240;2022-09-30T07:54:41;99722.09;;;13.54;80.69
64336;BME280;50672;53.362;-6.240;2022-09-30T07:57:15;99725.25;;;13.58;80.62
64336;BME280;50672;53.362;-6.240;2022-09-30T07:59:42;99703.97;;;13.60;80.89
64336;BME280;50672;53.362;-6.240;2022-09-30T08:02:18;99719.94;;;13.63;80.83
64336;BME280;50672;53.362;-6.240;2022-09-30T08:04:45;99730.06;;;13.62;80.96
64336;BME280;50672;53.362;-6.240;2022-09-30T08:07:14;99714.69;;;13.61;81.33
64336;BME280;50672;53.362;-6.240;2022-09-30T08:09:41;99680.00;;;13.62;81.22
64336;BME280;50672;53.362;-6.240;2022-09-30T08:12:08;99664.44;;;13.62;81.15
64336;BME280;50672;53.362;-6.240;2022-09-30T08:14:35;99649.28;;;13.60;81.43
64336;BME280;50672;53.362;-6.240;2022-09-30T08:17:02;99634.78;;;13.59;81.55
64336;BME280;50672;53.362;-6.240;2022-09-30T08:19:29;99615.03;;;13.57;81.89
64336;BME280;50672;53.362;-6.240;2022-09-30T08:21:56;99607.44;;;13.59;81.68
64336;BME280;50672;53.362;-6.240;2022-09-30T08:24:24;99585.34;;;13.61;82.06
64336;BME280;50672;53.362;-6.240;2022-09-30T08:26:52;99585.94;;;13.63;82.20
64336;BME280;50672;53.362;-6.240;2022-09-30T08:29:19;99581.47;;;13.68;82.07
64336;BME280;50672;53.362;-6.240;2022-09-30T08:32:06;99561.91;;;13.72;82.14
64336;BME280;50672;53.362;-6.240;2022-09-30T08:34:33;99553.84;;;13.77;82.65
64336;BME280;50672;53.362;-6.240;2022-09-30T08:37:01;99545.56;;;13.83;82.53
64336;BME280;50672;53.362;-6.240;2022-09-30T08:39:38;99524.91;;;13.88;82.63
64336;BME280;50672;53.362;-6.240;2022-09-30T08:50:33;99468.53;;;14.05;82.73
64336;BME280;50672;53.362;-6.240;2022-09-30T08:53:08;99468.97;;;14.02;82.76
64336;BME280;50672;53.362;-6.240;2022-09-30T08:55:44;99459.31;;;13.99;82.99
64336;BME280;50672;53.362;-6.240;2022-09-30T08:58:24;99442.91;;;13.99;82.93
64336;BME280;50672;53.362;-6.240;2022-09-30T09:01:01;99422.09;;;13.98;82.74
64336;BME280;50672;53.362;-6.240;2022-09-30T09:03:32;99407.34;;;13.99;83.05
64336;BME280;50672;53.362;-6.240;2022-09-30T09:12:17;99400.66;;;14.26;83.38
64336;BME280;50672;53.362;-6.240;2022-09-30T09:14:51;99401.63;;;14.31;83.25
64336;BME280;50672;53.362;-6.240;2022-09-30T09:17:31;99381.66;;;14.43;83.18
64336;BME280;50672;53.362;-6.240;2022-09-30T09:20:12;99358.34;;;14.52;82.88
64336;BME280;50672;53.362;-6.240;2022-09-30T09:22:41;99369.56;;;14.62;82.70
64336;BME280;50672;53.362;-6.240;2022-09-30T09:25:18;99363.75;;;14.70;82.85
64336;BME280;50672;53.362;-6.240;2022-09-30T09:27:50;99377.09;;;14.79;82.85
64336;BME280;50672;53.362;-6.240;2022-09-30T09:30:19;99377.22;;;14.84;82.60
64336;BME280;50672;53.362;-6.240;2022-09-30T09:32:53;99369.97;;;14.90;82.29
64336;BME280;50672;53.362;-6.240;2022-09-30T09:38:21;99391.53;;;14.98;82.10
64336;BME280;50672;53.362;-6.240;2022-09-30T09:46:33;99356.03;;;14.91;82.41
64336;BME280;50672;53.362;-6.240;2022-09-30T09:54:28;99349.59;;;14.85;82.64
64336;BME280;50672;53.362;-6.240;2022-09-30T09:57:07;99336.50;;;14.88;83.20
64336;BME280;50672;53.362;-6.240;2022-09-30T09:59:35;99335.16;;;14.90;83.20
64336;BME280;50672;53.362;-6.240;2022-09-30T10:02:21;99321.47;;;14.90;83.35
64336;BME280;50672;53.362;-6.240;2022-09-30T10:04:50;99332.09;;;14.86;83.41
64336;BME280;50672;53.362;-6.240;2022-09-30T10:07:30;99298.84;;;14.83;83.57
64336;BME280;50672;53.362;-6.240;2022-09-30T10:10:26;99314.56;;;14.76;84.01
64336;BME280;50672;53.362;-6.240;2022-09-30T10:12:55;99323.16;;;14.67;84.10
64336;BME280;50672;53.362;-6.240;2022-09-30T10:15:24;99316.00;;;14.66;84.42
64336;BME280;50672;53.362;-6.240;2022-09-30T10:17:56;99310.06;;;14.69;84.76
64336;BME280;50672;53.362;-6.240;2022-09-30T10:20:30;99304.94;;;14.73;85.12
64336;BME280;50672;53.362;-6.240;2022-09-30T10:23:42;99298.16;;;14.76;85.07
64336;BME280;50672;53.362;-6.240;2022-09-30T10:31:30;99261.81;;;14.92;85.53
64336;BME280;50672;53.362;-6.240;2022-09-30T10:36:38;99249.50;;;15.07;85.58
64336;BME280;50672;53.362;-6.240;2022-09-30T10:39:07;99224.44;;;15.15;85.54
64336;BME280;50672;53.362;-6.240;2022-09-30T10:41:42;99233.97;;;15.24;85.85
64336;BME280;50672;53.362;-6.240;2022-09-30T10:44:20;99228.34;;;15.31;85.87
64336;BME280;50672;53.362;-6.240;2022-09-30T10:46:50;99225.78;;;15.41;85.71
64336;BME280;50672;53.362;-6.240;2022-09-30T10:51:55;99204.72;;;15.59;85.77
64336;BME280;50672;53.362;-6.240;2022-09-30T10:54:35;99197.75;;;15.68;85.58
64336;BME280;50672;53.362;-6.240;2022-09-30T10:57:42;99184.69;;;15.75;85.49
64336;BME280;50672;53.362;-6.240;2022-09-30T11:00:14;99199.97;;;15.83;85.26
64336;BME280;50672;53.362;-6.240;2022-09-30T11:02:52;99191.88;;;15.93;84.82
64336;BME280;50672;53.362;-6.240;2022-09-30T11:05:30;99185.41;;;15.99;84.73
64336;BME280;50672;53.362;-6.240;2022-09-30T11:08:18;99195.97;;;16.08;84.79
64336;BME280;50672;53.362;-6.240;2022-09-30T11:10:55;99188.56;;;16.08;84.99
64336;BME280;50672;53.362;-6.240;2022-09-30T11:13:36;99184.75;;;16.09;84.34
64336;BME280;50672;53.362;-6.240;2022-09-30T11:18:39;99179.91;;;16.16;84.14
64336;BME280;50672;53.362;-6.240;2022-09-30T11:23:47;99174.81;;;16.25;83.73
64336;BME280;50672;53.362;-6.240;2022-09-30T11:31:41;99165.72;;;16.42;83.46
64336;BME280;50672;53.362;-6.240;2022-09-30T11:34:35;99169.03;;;16.44;83.33
64336;BME280;50672;53.362;-6.240;2022-09-30T11:42:23;99144.84;;;16.40;82.78
64336;BME280;50672;53.362;-6.240;2022-09-30T11:45:06;99169.53;;;16.40;83.08
64336;BME280;50672;53.362;-6.240;2022-09-30T11:53:13;99151.13;;;16.19;82.74
64336;BME280;50672;53.362;-6.240;2022-09-30T11:58:27;99147.13;;;16.10;83.19
64336;BME280;50672;53.362;-6.240;2022-09-30T12:01:11;99156.97;;;16.05;83.71
64336;BME280;50672;53.362;-6.240;2022-09-30T12:03:43;99177.19;;;15.99;83.86
64336;BME280;50672;53.362;-6.240;2022-09-30T12:06:29;99161.66;;;15.88;83.80
64336;BME280;50672;53.362;-6.240;2022-09-30T12:09:21;99174.66;;;15.81;84.54
64336;BME280;50672;53.362;-6.240;2022-09-30T12:11:55;99182.72;;;15.70;84.57
64336;BME280;50672;53.362;-6.240;2022-09-30T12:14:46;99177.06;;;15.60;84.84
64336;BME280;50672;53.362;-6.240;2022-09-30T12:17:29;99173.63;;;15.53;85.65
64336;BME280;50672;53.362;-6.240;2022-09-30T12:20:21;99177.34;;;15.47;85.90
64336;BME280;50672;53.362;-6.240;2022-09-30T12:22:56;99208.03;;;15.44;86.36
64336;BME280;50672;53.362;-6.240;2022-09-30T12:25:40;99214.94;;;15.46;86.67
64336;BME280;50672;53.362;-6.240;2022-09-30T12:28:14;99219.91;;;15.49;86.74
64336;BME280;50672;53.362;-6.240;2022-09-30T12:31:18;99225.97;;;15.51;87.44
64336;BME280;50672;53.362;-6.240;2022-09-30T12:42:50;99280.91;;;15.57;87.97
64336;BME280;50672;53.362;-6.240;2022-09-30T12:48:11;99287.34;;;15.62;87.94
64336;BME280;50672;53.362;-6.240;2022-09-30T12:50:48;99296.00;;;15.71;87.80
64336;BME280;50672;53.362;-6.240;2022-09-30T12:53:27;99301.47;;;15.83;88.01
64336;BME280;50672;53.362;-6.240;2022-09-30T12:56:06;99308.34;;;16.14;87.51
64336;BME280;50672;53.362;-6.240;2022-09-30T12:58:39;99308.22;;;18.05;87.27
64336;BME280;50672;53.362;-6.240;2022-09-30T13:01:15;99315.47;;;20.08;86.36
64336;BME280;50672;53.362;-6.240;2022-09-30T13:04:28;99326.41;;;21.52;85.19
64336;BME280;50672;53.362;-6.240;2022-09-30T13:09:33;99329.28;;;24.30;80.98
64336;BME280;50672;53.362;-6.240;2022-09-30T13:14:37;99281.28;;;25.97;76.13
64336;BME280;50672;53.362;-6.240;2022-09-30T13:27:50;99322.94;;;28.66;63.47
64336;BME280;50672;53.362;-6.240;2022-09-30T13:32:46;99300.19;;;29.23;59.16
64336;BME280;50672;53.362;-6.240;2022-09-30T13:40:49;99306.97;;;28.66;55.11
64336;BME280;50672;53.362;-6.240;2022-09-30T13:43:42;99305.44;;;28.86;53.83
64336;BME280;50672;53.362;-6.240;2022-09-30T13:46:29;99318.88;;;27.12;53.05
64336;BME280;50672;53.362;-6.240;2022-09-30T13:49:11;99328.25;;;27.57;52.70
64336;BME280;50672;53.362;-6.240;2022-09-30T13:51:40;99340.75;;;28.35;51.44
64336;BME280;50672;53.362;-6.240;2022-09-30T13:54:34;99344.78;;;29.07;50.71
64336;BME280;50672;53.362;-6.240;2022-09-30T13:57:02;99344.34;;;28.79;50.11
64336;BME280;50672;53.362;-6.240;2022-09-30T13:59:40;99355.88;;;28.51;49.23
64336;BME280;50672;53.362;-6.240;2022-09-30T14:11:23;99324.88;;;29.98;45.79
64336;BME280;50672;53.362;-6.240;2022-09-30T14:22:01;99345.44;;;31.45;42.17
64336;BME280;50672;53.362;-6.240;2022-09-30T14:24:32;99339.25;;;31.89;41.63
64336;BME280;50672;53.362;-6.240;2022-09-30T14:34:52;99338.41;;;31.51;38.66
64336;BME280;50672;53.362;-6.240;2022-09-30T14:37:47;99350.25;;;30.99;38.09
64336;BME280;50672;53.362;-6.240;2022-09-30T14:40:23;99324.44;;;31.18;37.71
64336;BME280;50672;53.362;-6.240;2022-09-30T14:42:50;99364.41;;;31.36;37.01
64336;BME280;50672;53.362;-6.240;2022-09-30T14:45:24;99339.94;;;30.91;36.51
64336;BME280;50672;53.362;-6.240;2022-09-30T14:47:58;99322.56;;;31.10;36.38
64336;BME280;50672;53.362;-6.240;2022-09-30T14:50:33;99356.78;;;30.91;35.79
64336;BME280;50672;53.362;-6.240;2022-09-30T14:53:01;99313.94;;;31.27;35.10
64336;BME280;50672;53.362;-6.240;2022-09-30T14:55:34;99341.72;;;31.78;35.12
64336;BME280;50672;53.362;-6.240;2022-09-30T15:00:45;99363.25;;;32.52;33.82
64336;BME280;50672;53.362;-6.240;2022-09-30T15:03:13;99371.75;;;33.56;33.70
64336;BME280;50672;53.362;-6.240;2022-09-30T15:05:40;99340.22;;;34.02;33.03
64336;BME280;50672;53.362;-6.240;2022-09-30T15:08:17;99354.09;;;33.28;32.59
64336;BME280;50672;53.362;-6.240;2022-09-30T15:10:47;99357.28;;;33.42;31.70
64336;BME280;50672;53.362;-6.240;2022-09-30T15:13:15;99368.09;;;32.80;31.30
64336;BME280;50672;53.362;-6.240;2022-09-30T15:15:43;99338.28;;;32.50;30.99
64336;BME280;50672;53.362;-6.240;2022-09-30T15:18:25;99318.81;;;32.04;31.37
64336;BME280;50672;53.362;-6.240;2022-09-30T15:20:55;99348.16;;;30.62;31.19
64336;BME280;50672;53.362;-6.240;2022-09-30T15:23:32;99344.84;;;30.48;31.31
64336;BME280;50672;53.362;-6.240;2022-09-30T15:26:01;99361.66;;;31.02;31.34
64336;BME280;50672;53.362;-6.240;2022-09-30T15:28:28;99381.34;;;30.39;31.11
64336;BME280;50672;53.362;-6.240;2022-09-30T15:30:57;99350.56;;;30.09;31.17
64336;BME280;50672;53.362;-6.240;2022-09-30T15:33:25;99356.72;;;28.34;31.77
64336;BME280;50672;53.362;-6.240;2022-09-30T15:36:11;99345.97;;;27.92;32.05
64336;BME280;50672;53.362;-6.240;2022-09-30T15:38:39;99350.56;;;27.08;32.22
64336;BME280;50672;53.362;-6.240;2022-09-30T15:41:08;99341.00;;;25.26;32.50
64336;BME280;50672;53.362;-6.240;2022-09-30T15:48:47;99381.72;;;21.62;34.85
64336;BME280;50672;53.362;-6.240;2022-09-30T15:51:27;99367.22;;;20.95;35.87
64336;BME280;50672;53.362;-6.240;2022-09-30T15:53:57;99376.88;;;20.87;36.28
64336;BME280;50672;53.362;-6.240;2022-09-30T15:56:32;99379.63;;;20.46;37.01
64336;BME280;50672;53.362;-6.240;2022-09-30T15:59:07;99388.69;;;20.26;37.83
64336;BME280;50672;53.362;-6.240;2022-09-30T16:04:20;99375.97;;;20.04;38.65
64336;BME280;50672;53.362;-6.240;2022-09-30T16:06:55;99374.81;;;19.95;39.46
64336;BME280;50672;53.362;-6.240;2022-09-30T16:09:31;99380.91;;;19.97;39.78
64336;BME280;50672;53.362;-6.240;2022-09-30T16:14:32;99396.88;;;19.90;40.98
64336;BME280;50672;53.362;-6.240;2022-09-30T16:17:01;99401.78;;;19.72;41.13
64336;BME280;50672;53.362;-6.240;2022-09-30T16:19:29;99394.47;;;19.51;41.85
64336;BME280;50672;53.362;-6.240;2022-09-30T16:21:57;99401.31;;;19.38;42.36
64336;BME280;50672;53.362;-6.240;2022-09-30T16:26:56;99397.56;;;19.11;42.85
64336;BME280;50672;53.362;-6.240;2022-09-30T16:29:24;99400.75;;;18.93;43.46
64336;BME280;50672;53.362;-6.240;2022-09-30T16:31:53;99410.66;;;18.89;43.93
64336;BME280;50672;53.362;-6.240;2022-09-30T16:34:23;99402.81;;;18.75;44.47
64336;BME280;50672;53.362;-6.240;2022-09-30T16:36:53;99402.91;;;18.58;44.83
64336;BME280;50672;53.362;-6.240;2022-09-30T16:39:20;99405.25;;;18.44;45.64
64336;BME280;50672;53.362;-6.240;2022-09-30T16:41:47;99407.84;;;18.24;45.78
64336;BME280;50672;53.362;-6.240;2022-09-30T16:44:15;99411.78;;;18.06;46.47